Airfield :
LOGIN :

Register | Disclaimer

   EN    FR    IT 

 










Legend :    VFR   Marginal VFR   IFR   Intensive IFR   Very Intensive IFR
Visi :
Ceiling :
>= 8 km
>= 3000ft
5 to 8 km
1000 to 3000 ft
1500m to 5 km
500 to 1000 ft
800 to 1500m
200 to 500 ft
< 800m
< 200 ft
Symbols :   Thunderstorms  Fog  Heavy snow  Heavy precipitations  Wind > 20 kt
SIGMETs :     Misc.  Thunderstorms  Icing  Turbulence  Mountain Waves  Volcanic Ashes






- Airport Elevation : 584 ft


LFPV - Villacoublay Vélizy

CURRENT METAR :
  • 252300Z AUTO 29011KT CAVOK 09/04 Q1009 NOSIG

EXPIRED METARs :
  • 252230Z AUTO 29013KT CAVOK 10/04 Q1009 NOSIG
  • 252200Z AUTO 28014KT CAVOK 10/05 Q1009 NOSIG
  • 252130Z AUTO 27010KT CAVOK 09/05 Q1008 NOSIG
  • 252100Z AUTO 27011KT CAVOK 10/05 Q1008 NOSIG
  • 252030Z AUTO 27011KT 9999 FEW049 BKN082 09/05 Q1008 NOSIG

TAF TAF LFPV
Valid from the 25 at 21:00 until the 26 at 21:00 UTC


252000Z 2521/2621 30010KT CAVOK
TEMPO 2609/2621 30015G25KT
TEMPO 2618/2621 4900 -RA BKN015



MET'MAP, your aeronautical weather chart ! - Copyright ORBIFLY December 2007 - Disclaimer

ORBIFLY MET'MAP TEAM :

Programming & Development : Alexandra Zaïnal
Concept & original design : Baudouin d'Aumeries
Assistance for programming : Marc-Olivier Méhu
Technical & hardware support : Manuel Goepfert

Contact : metmap@orbifly.com




SOURCES & CREDITS :

   NOAA